sensor_id;sensor_type;location;lat;lon;timestamp;pressure;altitude;pressure_sealevel;temperature;humidity
9343;BME280;4710;51.382;7.244;2022-09-09T00:01:24;98749.45;;;29.42;52.62
9343;BME280;4710;51.382;7.244;2022-09-09T00:07:04;98746.38;;;29.63;51.20
9343;BME280;4710;51.382;7.244;2022-09-09T00:09:49;98749.25;;;29.62;51.40
9343;BME280;4710;51.382;7.244;2022-09-09T00:12:47;98739.55;;;29.68;50.80
9343;BME280;4710;51.382;7.244;2022-09-09T00:15:25;98745.27;;;29.85;50.07
9343;BME280;4710;51.382;7.244;2022-09-09T00:18:17;98742.49;;;29.98;49.42
9343;BME280;4710;51.382;7.244;2022-09-09T00:21:13;98738.52;;;29.76;50.45
9343;BME280;4710;51.382;7.244;2022-09-09T00:24:01;98732.31;;;30.12;49.27
9343;BME280;4710;51.382;7.244;2022-09-09T00:26:48;98735.09;;;30.19;48.65
9343;BME280;4710;51.382;7.244;2022-09-09T00:32:22;98726.78;;;30.25;48.37
9343;BME280;4710;51.382;7.244;2022-09-09T00:35:04;98725.84;;;30.35;47.88
9343;BME280;4710;51.382;7.244;2022-09-09T00:37:44;98723.91;;;30.31;48.03
9343;BME280;4710;51.382;7.244;2022-09-09T00:40:32;98720.24;;;30.38;47.72
9343;BME280;4710;51.382;7.244;2022-09-09T00:43:32;98721.30;;;30.32;47.50
9343;BME280;4710;51.382;7.244;2022-09-09T00:46:31;98717.43;;;29.79;49.02
9343;BME280;4710;51.382;7.244;2022-09-09T00:49:34;98718.13;;;30.27;47.45
9343;BME280;4710;51.382;7.244;2022-09-09T00:52:18;98714.46;;;30.35;47.73
9343;BME280;4710;51.382;7.244;2022-09-09T00:57:50;98717.41;;;29.72;48.92
9343;BME280;4710;51.382;7.244;2022-09-09T01:00:41;98715.00;;;29.83;49.03
9343;BME280;4710;51.382;7.244;2022-09-09T01:03:34;98715.29;;;29.66;49.11
9343;BME280;4710;51.382;7.244;2022-09-09T01:06:28;98713.25;;;29.64;49.38
9343;BME280;4710;51.382;7.244;2022-09-09T01:09:18;98713.83;;;29.37;50.29
9343;BME280;4710;51.382;7.244;2022-09-09T01:12:14;98717.20;;;29.60;50.51
9343;BME280;4710;51.382;7.244;2022-09-09T01:15:01;98721.70;;;29.84;49.58
9343;BME280;4710;51.382;7.244;2022-09-09T01:17:46;98713.11;;;29.65;49.73
9343;BME280;4710;51.382;7.244;2022-09-09T01:20:23;98717.70;;;29.57;50.40
9343;BME280;4710;51.382;7.244;2022-09-09T01:26:11;98717.64;;;30.07;49.13
9343;BME280;4710;51.382;7.244;2022-09-09T01:28:54;98721.26;;;30.02;49.57
9343;BME280;4710;51.382;7.244;2022-09-09T01:31:38;98715.06;;;29.95;50.08
9343;BME280;4710;51.382;7.244;2022-09-09T01:34:17;98715.05;;;30.14;49.21
9343;BME280;4710;51.382;7.244;2022-09-09T01:36:58;98714.08;;;30.11;49.05
9343;BME280;4710;51.382;7.244;2022-09-09T01:39:38;98711.55;;;30.02;50.03
9343;BME280;4710;51.382;7.244;2022-09-09T01:42:18;98713.20;;;29.83;49.93
9343;BME280;4710;51.382;7.244;2022-09-09T01:44:55;98710.54;;;29.93;50.83
9343;BME280;4710;51.382;7.244;2022-09-09T01:47:33;98711.78;;;30.14;50.17
9343;BME280;4710;51.382;7.244;2022-09-09T01:50:14;98711.70;;;30.32;49.26
9343;BME280;4710;51.382;7.244;2022-09-09T01:52:57;98716.08;;;30.28;49.55
9343;BME280;4710;51.382;7.244;2022-09-09T01:55:39;98710.83;;;30.17;50.19
9343;BME280;4710;51.382;7.244;2022-09-09T01:58:32;98712.70;;;30.06;50.25
9343;BME280;4710;51.382;7.244;2022-09-09T02:01:24;98714.01;;;30.27;49.59
9343;BME280;4710;51.382;7.244;2022-09-09T02:04:01;98708.66;;;30.21;49.11
9343;BME280;4710;51.382;7.244;2022-09-09T02:06:41;98705.52;;;30.24;49.41
9343;BME280;4710;51.382;7.244;2022-09-09T02:09:22;98705.66;;;30.30;49.03
9343;BME280;4710;51.382;7.244;2022-09-09T02:12:08;98709.45;;;29.94;50.17
9343;BME280;4710;51.382;7.244;2022-09-09T02:14:52;98706.54;;;30.08;49.87
9343;BME280;4710;51.382;7.244;2022-09-09T02:17:32;98706.72;;;29.99;50.42
9343;BME280;4710;51.382;7.244;2022-09-09T02:20:14;98698.34;;;29.92;49.69
9343;BME280;4710;51.382;7.244;2022-09-09T02:22:55;98707.68;;;29.96;50.55
9343;BME280;4710;51.382;7.244;2022-09-09T02:25:36;98707.27;;;30.19;50.12
9343;BME280;4710;51.382;7.244;2022-09-09T02:28:21;98707.81;;;29.98;50.37
9343;BME280;4710;51.382;7.244;2022-09-09T02:31:01;98709.95;;;30.06;50.01
9343;BME280;4710;51.382;7.244;2022-09-09T02:33:41;98719.03;;;28.12;54.58
9343;BME280;4710;51.382;7.244;2022-09-09T02:36:19;98713.16;;;29.39;53.37
9343;BME280;4710;51.382;7.244;2022-09-09T02:38:59;98716.91;;;29.59;52.50
9343;BME280;4710;51.382;7.244;2022-09-09T02:41:38;98720.94;;;27.73;57.04
9343;BME280;4710;51.382;7.244;2022-09-09T02:44:17;98714.83;;;28.84;54.55
9343;BME280;4710;51.382;7.244;2022-09-09T02:49:55;98713.08;;;28.87;54.94
9343;BME280;4710;51.382;7.244;2022-09-09T02:52:36;98707.43;;;29.09;54.35
9343;BME280;4710;51.382;7.244;2022-09-09T02:58:20;98721.18;;;27.99;57.89
9343;BME280;4710;51.382;7.244;2022-09-09T03:01:12;98712.91;;;28.34;56.61
9343;BME280;4710;51.382;7.244;2022-09-09T03:03:53;98716.07;;;28.72;55.12
9343;BME280;4710;51.382;7.244;2022-09-09T03:06:34;98709.84;;;28.76;55.63
9343;BME280;4710;51.382;7.244;2022-09-09T03:09:15;98711.29;;;27.96;57.83
9343;BME280;4710;51.382;7.244;2022-09-09T03:11:53;98715.00;;;28.62;55.48
9343;BME280;4710;51.382;7.244;2022-09-09T03:14:34;98699.39;;;28.97;54.47
9343;BME280;4710;51.382;7.244;2022-09-09T03:17:17;98692.64;;;29.26;54.02
9343;BME280;4710;51.382;7.244;2022-09-09T03:20:00;98697.25;;;28.78;54.84
9343;BME280;4710;51.382;7.244;2022-09-09T03:22:40;98695.70;;;27.94;56.92
9343;BME280;4710;51.382;7.244;2022-09-09T03:25:17;98695.29;;;28.87;54.78
9343;BME280;4710;51.382;7.244;2022-09-09T03:27:58;98689.92;;;29.07;53.67
9343;BME280;4710;51.382;7.244;2022-09-09T03:30:35;98688.16;;;29.28;52.37
9343;BME280;4710;51.382;7.244;2022-09-09T03:33:16;98689.19;;;29.53;52.14
9343;BME280;4710;51.382;7.244;2022-09-09T03:35:59;98693.98;;;29.21;52.69
9343;BME280;4710;51.382;7.244;2022-09-09T03:38:37;98687.20;;;29.62;51.55
9343;BME280;4710;51.382;7.244;2022-09-09T03:41:17;98688.77;;;29.37;51.90
9343;BME280;4710;51.382;7.244;2022-09-09T03:43:54;98688.61;;;29.49;51.71
9343;BME280;4710;51.382;7.244;2022-09-09T03:46:35;98693.70;;;27.43;54.47
9343;BME280;4710;51.382;7.244;2022-09-09T03:49:20;98696.89;;;28.69;55.27
9343;BME280;4710;51.382;7.244;2022-09-09T03:52:01;98695.05;;;28.99;53.58
9343;BME280;4710;51.382;7.244;2022-09-09T03:54:42;98691.14;;;29.24;53.36
9343;BME280;4710;51.382;7.244;2022-09-09T03:57:22;98693.73;;;29.22;52.74
9343;BME280;4710;51.382;7.244;2022-09-09T03:59:59;98694.41;;;28.92;53.18
9343;BME280;4710;51.382;7.244;2022-09-09T04:02:40;98685.57;;;29.11;53.22
9343;BME280;4710;51.382;7.244;2022-09-09T04:05:23;98693.14;;;29.46;51.87
9343;BME280;4710;51.382;7.244;2022-09-09T04:08:02;98693.66;;;29.67;51.04
9343;BME280;4710;51.382;7.244;2022-09-09T04:10:44;98692.27;;;29.59;50.52
9343;BME280;4710;51.382;7.244;2022-09-09T04:13:30;98695.23;;;29.39;51.20
9343;BME280;4710;51.382;7.244;2022-09-09T04:16:08;98691.95;;;29.58;51.37
9343;BME280;4710;51.382;7.244;2022-09-09T04:18:54;98705.73;;;27.99;54.60
9343;BME280;4710;51.382;7.244;2022-09-09T04:21:44;98696.95;;;29.32;52.44
9343;BME280;4710;51.382;7.244;2022-09-09T04:24:21;98694.70;;;29.56;51.25
9343;BME280;4710;51.382;7.244;2022-09-09T04:26:58;98690.89;;;29.59;51.66
9343;BME280;4710;51.382;7.244;2022-09-09T04:29:35;98690.50;;;29.64;51.61
9343;BME280;4710;51.382;7.244;2022-09-09T04:32:17;98687.88;;;29.81;50.54
9343;BME280;4710;51.382;7.244;2022-09-09T04:34:55;98695.39;;;29.10;52.86
9343;BME280;4710;51.382;7.244;2022-09-09T04:37:33;98691.56;;;29.60;51.71
9343;BME280;4710;51.382;7.244;2022-09-09T04:40:10;98696.36;;;29.28;52.57
9343;BME280;4710;51.382;7.244;2022-09-09T04:42:48;98697.75;;;28.96;52.52
9343;BME280;4710;51.382;7.244;2022-09-09T04:56:04;98705.31;;;29.32;52.11
9343;BME280;4710;51.382;7.244;2022-09-09T04:58:44;98705.23;;;28.69;53.24
9343;BME280;4710;51.382;7.244;2022-09-09T05:01:24;98708.45;;;27.96;55.24
9343;BME280;4710;51.382;7.244;2022-09-09T05:04:02;98700.75;;;28.04;57.72
9343;BME280;4710;51.382;7.244;2022-09-09T05:06:45;98702.67;;;28.04;57.67
9343;BME280;4710;51.382;7.244;2022-09-09T05:09:29;98698.90;;;28.39;56.90
9343;BME280;4710;51.382;7.244;2022-09-09T05:12:16;98698.86;;;28.37;57.13
9343;BME280;4710;51.382;7.244;2022-09-09T05:14:53;98702.34;;;28.43;57.26
9343;BME280;4710;51.382;7.244;2022-09-09T05:17:30;98695.47;;;28.88;55.01
9343;BME280;4710;51.382;7.244;2022-09-09T05:20:19;98698.42;;;28.34;56.00
9343;BME280;4710;51.382;7.244;2022-09-09T05:22:56;98701.78;;;27.52;60.42
9343;BME280;4710;51.382;7.244;2022-09-09T05:25:37;98696.41;;;28.16;58.16
9343;BME280;4710;51.382;7.244;2022-09-09T05:28:17;98695.78;;;27.90;58.05
9343;BME280;4710;51.382;7.244;2022-09-09T05:31:10;98691.99;;;28.85;55.69
9343;BME280;4710;51.382;7.244;2022-09-09T07:02:43;98728.13;;;27.05;62.58
9343;BME280;4710;51.382;7.244;2022-09-09T07:16:22;98737.46;;;27.40;63.00
9343;BME280;4710;51.382;7.244;2022-09-09T07:19:05;98735.08;;;25.69;66.69
9343;BME280;4710;51.382;7.244;2022-09-09T07:25:27;98744.53;;;27.90;59.28
9343;BME280;4710;51.382;7.244;2022-09-09T07:42:25;98743.88;;;26.95;63.69
9343;BME280;4710;51.382;7.244;2022-09-09T07:45:05;98748.05;;;27.20;61.37
9343;BME280;4710;51.382;7.244;2022-09-09T07:47:42;98742.53;;;27.83;61.25
9343;BME280;4710;51.382;7.244;2022-09-09T07:50:31;98742.88;;;26.93;62.28
9343;BME280;4710;51.382;7.244;2022-09-09T07:53:12;98745.30;;;26.75;64.34
9343;BME280;4710;51.382;7.244;2022-09-09T07:56:02;98743.77;;;28.22;59.52
9343;BME280;4710;51.382;7.244;2022-09-09T07:58:37;98745.94;;;27.74;61.37
9343;BME280;4710;51.382;7.244;2022-09-09T08:12:01;98751.23;;;27.47;58.61
9343;BME280;4710;51.382;7.244;2022-09-09T08:14:42;98755.16;;;26.93;59.09
9343;BME280;4710;51.382;7.244;2022-09-09T08:17:28;98755.36;;;26.75;59.79
9343;BME280;4710;51.382;7.244;2022-09-09T08:20:05;98767.75;;;26.15;58.48
9343;BME280;4710;51.382;7.244;2022-09-09T08:22:46;98755.83;;;25.87;61.52
9343;BME280;4710;51.382;7.244;2022-09-09T08:25:31;98756.27;;;26.78;59.26
9343;BME280;4710;51.382;7.244;2022-09-09T08:28:08;98745.69;;;27.83;56.14
9343;BME280;4710;51.382;7.244;2022-09-09T08:31:07;98756.84;;;26.40;60.43
9343;BME280;4710;51.382;7.244;2022-09-09T08:33:48;98752.22;;;28.01;56.62
9343;BME280;4710;51.382;7.244;2022-09-09T08:36:26;98755.33;;;27.47;55.05
9343;BME280;4710;51.382;7.244;2022-09-09T08:39:06;98760.91;;;28.71;53.93
9343;BME280;4710;51.382;7.244;2022-09-09T08:42:13;98760.12;;;28.73;52.87
9343;BME280;4710;51.382;7.244;2022-09-09T08:45:19;98764.80;;;27.83;54.29
9343;BME280;4710;51.382;7.244;2022-09-09T08:48:08;98764.75;;;28.38;51.21
9343;BME280;4710;51.382;7.244;2022-09-09T08:50:48;98754.89;;;28.18;51.59
9343;BME280;4710;51.382;7.244;2022-09-09T08:53:36;98754.39;;;28.88;49.50
9343;BME280;4710;51.382;7.244;2022-09-09T08:56:14;98759.37;;;26.92;50.64
9343;BME280;4710;51.382;7.244;2022-09-09T08:59:00;98765.03;;;26.60;54.49
9343;BME280;4710;51.382;7.244;2022-09-09T09:01:45;98755.85;;;29.22;49.78
9343;BME280;4710;51.382;7.244;2022-09-09T09:04:37;98755.70;;;29.04;48.05
9343;BME280;4710;51.382;7.244;2022-09-09T09:07:33;98768.85;;;28.29;49.62
9343;BME280;4710;51.382;7.244;2022-09-09T09:13:31;98769.06;;;27.60;51.28
9343;BME280;4710;51.382;7.244;2022-09-09T09:19:18;98776.54;;;26.25;54.30
9343;BME280;4710;51.382;7.244;2022-09-09T09:22:04;98769.59;;;28.31;49.56
9343;BME280;4710;51.382;7.244;2022-09-09T09:25:03;98770.25;;;28.21;50.07
9343;BME280;4710;51.382;7.244;2022-09-09T09:27:51;98769.27;;;28.19;49.33
9343;BME280;4710;51.382;7.244;2022-09-09T09:30:32;98766.58;;;28.51;49.14
9343;BME280;4710;51.382;7.244;2022-09-09T09:33:30;98768.16;;;27.88;48.74
9343;BME280;4710;51.382;7.244;2022-09-09T09:36:08;98766.38;;;28.17;48.25
9343;BME280;4710;51.382;7.244;2022-09-09T09:49:24;98788.02;;;28.86;45.82
9343;BME280;4710;51.382;7.244;2022-09-09T09:52:12;98772.14;;;29.35;45.20
9343;BME280;4710;51.382;7.244;2022-09-09T09:54:48;98768.88;;;29.38;45.59
9343;BME280;4710;51.382;7.244;2022-09-09T09:57:34;98787.11;;;27.78;48.20
9343;BME280;4710;51.382;7.244;2022-09-09T10:00:15;98773.16;;;29.27;45.56
9343;BME280;4710;51.382;7.244;2022-09-09T10:02:55;98779.63;;;28.81;46.74
9343;BME280;4710;51.382;7.244;2022-09-09T10:05:35;98783.59;;;29.01;47.38
9343;BME280;4710;51.382;7.244;2022-09-09T10:08:14;98784.64;;;28.98;47.34
9343;BME280;4710;51.382;7.244;2022-09-09T10:14:12;98776.00;;;27.51;48.19
9343;BME280;4710;51.382;7.244;2022-09-09T10:17:04;98778.45;;;28.21;47.38
9343;BME280;4710;51.382;7.244;2022-09-09T10:19:42;98777.83;;;27.38;47.82
9343;BME280;4710;51.382;7.244;2022-09-09T10:22:26;98774.91;;;28.13;47.21
9343;BME280;4710;51.382;7.244;2022-09-09T10:25:28;98778.92;;;27.97;46.67
9343;BME280;4710;51.382;7.244;2022-09-09T10:28:16;98776.62;;;28.27;45.40
9343;BME280;4710;51.382;7.244;2022-09-09T10:31:07;98770.92;;;27.66;46.96
9343;BME280;4710;51.382;7.244;2022-09-09T10:33:51;98780.46;;;28.09;44.33
9343;BME280;4710;51.382;7.244;2022-09-09T10:36:31;98769.78;;;28.35;43.12
9343;BME280;4710;51.382;7.244;2022-09-09T10:39:32;98763.56;;;27.93;43.67
9343;BME280;4710;51.382;7.244;2022-09-09T10:42:06;98757.62;;;28.69;42.86
9343;BME280;4710;51.382;7.244;2022-09-09T10:45:02;98753.27;;;28.09;42.45
9343;BME280;4710;51.382;7.244;2022-09-09T10:47:52;98749.36;;;29.14;41.05
9343;BME280;4710;51.382;7.244;2022-09-09T10:50:45;98751.59;;;29.67;40.16
9343;BME280;4710;51.382;7.244;2022-09-09T10:53:46;98744.20;;;29.18;41.30
9343;BME280;4710;51.382;7.244;2022-09-09T10:56:26;98746.33;;;28.98;41.67
9343;BME280;4710;51.382;7.244;2022-09-09T10:59:12;98744.61;;;30.04;40.53
9343;BME280;4710;51.382;7.244;2022-09-09T11:01:56;98758.89;;;28.96;41.65
9343;BME280;4710;51.382;7.244;2022-09-09T11:04:45;98750.41;;;30.64;39.38
9343;BME280;4710;51.382;7.244;2022-09-09T11:08:39;98745.25;;;29.14;41.71
9343;BME280;4710;51.382;7.244;2022-09-09T11:11:32;98748.73;;;29.52;40.80
9343;BME280;4710;51.382;7.244;2022-09-09T11:17:10;98745.11;;;28.75;41.36
9343;BME280;4710;51.382;7.244;2022-09-09T11:19:50;98742.17;;;29.50;39.89
9343;BME280;4710;51.382;7.244;2022-09-09T11:22:33;98743.30;;;29.54;39.99
9343;BME280;4710;51.382;7.244;2022-09-09T11:25:23;98736.66;;;29.87;40.04
9343;BME280;4710;51.382;7.244;2022-09-09T11:31:00;98730.24;;;29.66;39.66
9343;BME280;4710;51.382;7.244;2022-09-09T11:33:58;98733.70;;;30.47;39.19
9343;BME280;4710;51.382;7.244;2022-09-09T11:39:44;98731.44;;;29.83;39.81
9343;BME280;4710;51.382;7.244;2022-09-09T11:42:24;98739.45;;;29.40;39.76
9343;BME280;4710;51.382;7.244;2022-09-09T11:45:15;98732.10;;;30.21;38.13
9343;BME280;4710;51.382;7.244;2022-09-09T11:47:56;98735.01;;;29.18;41.02
9343;BME280;4710;51.382;7.244;2022-09-09T11:50:36;98736.98;;;30.14;38.43
9343;BME280;4710;51.382;7.244;2022-09-09T11:53:18;98731.08;;;29.22;39.83
9343;BME280;4710;51.382;7.244;2022-09-09T11:56:00;98733.77;;;28.54;41.46
9343;BME280;4710;51.382;7.244;2022-09-09T11:58:59;98726.53;;;30.39;39.40
9343;BME280;4710;51.382;7.244;2022-09-09T12:01:40;98735.80;;;30.02;39.50
9343;BME280;4710;51.382;7.244;2022-09-09T12:04:35;98746.30;;;28.37;42.76
9343;BME280;4710;51.382;7.244;2022-09-09T12:10:21;98761.30;;;26.92;49.09
9343;BME280;4710;51.382;7.244;2022-09-09T12:13:15;98767.66;;;27.58;52.87
9343;BME280;4710;51.382;7.244;2022-09-09T12:15:52;98773.61;;;27.02;58.99
9343;BME280;4710;51.382;7.244;2022-09-09T12:18:39;98777.44;;;26.54;64.34
9343;BME280;4710;51.382;7.244;2022-09-09T12:42:56;98743.61;;;29.13;55.01
9343;BME280;4710;51.382;7.244;2022-09-09T12:45:37;98749.17;;;29.39;54.32
9343;BME280;4710;51.382;7.244;2022-09-09T12:48:18;98763.03;;;28.75;56.43
9343;BME280;4710;51.382;7.244;2022-09-09T13:01:46;98761.14;;;27.20;65.79
9343;BME280;4710;51.382;7.244;2022-09-09T13:04:34;98755.01;;;26.99;67.90
9343;BME280;4710;51.382;7.244;2022-09-09T13:07:12;98746.09;;;28.24;64.83
9343;BME280;4710;51.382;7.244;2022-09-09T13:09:54;98731.33;;;29.47;60.39
9343;BME280;4710;51.382;7.244;2022-09-09T13:12:38;98722.30;;;29.70;57.66
9343;BME280;4710;51.382;7.244;2022-09-09T13:15:21;98726.80;;;29.00;57.67
9343;BME280;4710;51.382;7.244;2022-09-09T13:18:11;98720.89;;;30.30;54.24
9343;BME280;4710;51.382;7.244;2022-09-09T13:21:05;98731.02;;;27.54;58.37
9343;BME280;4710;51.382;7.244;2022-09-09T13:23:49;98725.70;;;29.01;57.92
9343;BME280;4710;51.382;7.244;2022-09-09T13:26:32;98725.15;;;29.82;53.36
9343;BME280;4710;51.382;7.244;2022-09-09T13:29:17;98726.89;;;30.24;50.94
9343;BME280;4710;51.382;7.244;2022-09-09T13:32:05;98724.39;;;30.46;49.85
9343;BME280;4710;51.382;7.244;2022-09-09T13:34:58;98726.13;;;30.67;50.59
9343;BME280;4710;51.382;7.244;2022-09-09T13:41:02;98751.36;;;30.12;48.64
9343;BME280;4710;51.382;7.244;2022-09-09T13:43:51;98762.28;;;27.90;53.96
9343;BME280;4710;51.382;7.244;2022-09-09T13:46:34;98770.55;;;26.57;60.27
9343;BME280;4710;51.382;7.244;2022-09-09T13:49:22;98770.38;;;27.58;61.99
9343;BME280;4710;51.382;7.244;2022-09-09T13:52:19;98756.24;;;28.82;59.10
9343;BME280;4710;51.382;7.244;2022-09-09T13:54:56;98745.73;;;28.93;56.02
9343;BME280;4710;51.382;7.244;2022-09-09T13:57:49;98750.84;;;28.63;57.51
9343;BME280;4710;51.382;7.244;2022-09-09T14:00:20;98746.20;;;29.30;56.22
9343;BME280;4710;51.382;7.244;2022-09-09T14:03:04;98730.03;;;30.55;51.61
9343;BME280;4710;51.382;7.244;2022-09-09T14:05:44;98733.22;;;29.83;55.54
9343;BME280;4710;51.382;7.244;2022-09-09T14:08:25;98736.56;;;28.27;58.43
9343;BME280;4710;51.382;7.244;2022-09-09T14:11:06;98722.33;;;30.54;53.31
9343;BME280;4710;51.382;7.244;2022-09-09T14:13:47;98721.36;;;30.47;53.97
9343;BME280;4710;51.382;7.244;2022-09-09T14:16:24;98713.37;;;29.84;56.24
9343;BME280;4710;51.382;7.244;2022-09-09T14:19:08;98710.94;;;29.04;57.19
9343;BME280;4710;51.382;7.244;2022-09-09T14:21:48;98713.80;;;30.41;53.83
9343;BME280;4710;51.382;7.244;2022-09-09T14:24:31;98713.25;;;29.64;54.01
9343;BME280;4710;51.382;7.244;2022-09-09T14:27:12;98709.36;;;31.31;50.99
9343;BME280;4710;51.382;7.244;2022-09-09T14:29:49;98714.12;;;30.19;55.64
9343;BME280;4710;51.382;7.244;2022-09-09T14:32:33;98717.78;;;29.49;54.52
9343;BME280;4710;51.382;7.244;2022-09-09T14:35:13;98720.30;;;29.11;55.41
9343;BME280;4710;51.382;7.244;2022-09-09T14:37:51;98717.50;;;29.66;54.87
9343;BME280;4710;51.382;7.244;2022-09-09T14:43:50;98728.74;;;29.90;55.67
9343;BME280;4710;51.382;7.244;2022-09-09T14:46:41;98727.55;;;28.15;61.95
9343;BME280;4710;51.382;7.244;2022-09-09T14:49:22;98735.65;;;28.00;61.11
9343;BME280;4710;51.382;7.244;2022-09-09T14:52:03;98730.50;;;28.89;60.83
9343;BME280;4710;51.382;7.244;2022-09-09T14:54:56;98724.66;;;29.20;60.87
9343;BME280;4710;51.382;7.244;2022-09-09T14:57:41;98716.94;;;29.67;59.13
9343;BME280;4710;51.382;7.244;2022-09-09T15:00:24;98716.27;;;29.18;59.02
9343;BME280;4710;51.382;7.244;2022-09-09T15:03:01;98713.78;;;30.05;54.64
9343;BME280;4710;51.382;7.244;2022-09-09T15:05:46;98711.20;;;29.91;54.62
9343;BME280;4710;51.382;7.244;2022-09-09T15:08:27;98708.78;;;30.56;54.09
9343;BME280;4710;51.382;7.244;2022-09-09T15:11:07;98717.11;;;30.84;52.92
9343;BME280;4710;51.382;7.244;2022-09-09T15:14:00;98720.30;;;31.64;50.32
9343;BME280;4710;51.382;7.244;2022-09-09T15:16:41;98707.81;;;31.82;49.56
9343;BME280;4710;51.382;7.244;2022-09-09T15:19:21;98722.39;;;31.35;51.37
9343;BME280;4710;51.382;7.244;2022-09-09T15:22:10;98752.41;;;30.04;54.31
9343;BME280;4710;51.382;7.244;2022-09-09T15:24:47;98801.09;;;28.68;60.67
9343;BME280;4710;51.382;7.244;2022-09-09T15:27:36;98822.64;;;28.86;61.75
9343;BME280;4710;51.382;7.244;2022-09-09T15:30:21;98819.56;;;27.83;60.35
9343;BME280;4710;51.382;7.244;2022-09-09T15:32:59;98808.53;;;27.78;59.24
9343;BME280;4710;51.382;7.244;2022-09-09T15:35:39;98804.36;;;27.81;57.97
9343;BME280;4710;51.382;7.244;2022-09-09T15:51:53;98777.82;;;28.06;58.09
9343;BME280;4710;51.382;7.244;2022-09-09T15:54:42;98776.59;;;29.15;54.39
9343;BME280;4710;51.382;7.244;2022-09-09T15:57:23;98762.72;;;29.53;52.42
9343;BME280;4710;51.382;7.244;2022-09-09T16:00:04;98759.95;;;29.87;51.40
9343;BME280;4710;51.382;7.244;2022-09-09T16:02:46;98755.05;;;30.05;50.64
9343;BME280;4710;51.382;7.244;2022-09-09T16:05:25;98758.22;;;30.12;49.87
9343;BME280;4710;51.382;7.244;2022-09-09T16:08:14;98742.94;;;30.26;48.71
9343;BME280;4710;51.382;7.244;2022-09-09T16:10:54;98745.20;;;30.39;48.31
9343;BME280;4710;51.382;7.244;2022-09-09T16:13:36;98746.52;;;30.29;48.61
9343;BME280;4710;51.382;7.244;2022-09-09T16:16:14;98751.81;;;30.46;47.81
9343;BME280;4710;51.382;7.244;2022-09-09T16:18:56;98749.46;;;30.69;47.59
9343;BME280;4710;51.382;7.244;2022-09-09T16:21:39;98754.95;;;30.74;47.65
9343;BME280;4710;51.382;7.244;2022-09-09T16:24:19;98753.98;;;30.77;47.12
9343;BME280;4710;51.382;7.244;2022-09-09T16:26:59;98745.92;;;30.84;46.60
9343;BME280;4710;51.382;7.244;2022-09-09T16:29:39;98751.77;;;30.71;47.13
9343;BME280;4710;51.382;7.244;2022-09-09T16:32:16;98754.72;;;30.88;46.32
9343;BME280;4710;51.382;7.244;2022-09-09T16:34:56;98755.67;;;30.88;46.41
9343;BME280;4710;51.382;7.244;2022-09-09T16:37:36;98775.20;;;30.30;48.58
9343;BME280;4710;51.382;7.244;2022-09-09T16:43:45;98773.22;;;30.54;48.50
9343;BME280;4710;51.382;7.244;2022-09-09T16:57:10;98771.27;;;30.19;48.82
9343;BME280;4710;51.382;7.244;2022-09-09T16:59:49;98774.37;;;29.91;51.17
9343;BME280;4710;51.382;7.244;2022-09-09T17:02:21;98775.36;;;30.14;50.23
9343;BME280;4710;51.382;7.244;2022-09-09T17:05:04;98768.75;;;30.33;49.94
9343;BME280;4710;51.382;7.244;2022-09-09T17:08:05;98766.52;;;29.86;51.72
9343;BME280;4710;51.382;7.244;2022-09-09T17:14:31;98767.91;;;29.49;53.50
9343;BME280;4710;51.382;7.244;2022-09-09T17:27:58;98762.94;;;29.65;52.77
9343;BME280;4710;51.382;7.244;2022-09-09T17:30:38;98766.64;;;29.80;52.78
9343;BME280;4710;51.382;7.244;2022-09-09T17:33:15;98772.48;;;29.13;55.18
9343;BME280;4710;51.382;7.244;2022-09-09T17:35:58;98766.96;;;29.50;54.54
9343;BME280;4710;51.382;7.244;2022-09-09T17:38:36;98769.47;;;29.27;53.56
9343;BME280;4710;51.382;7.244;2022-09-09T17:41:31;98777.98;;;29.02;57.11
9343;BME280;4710;51.382;7.244;2022-09-09T17:54:40;98772.31;;;29.27;56.24
9343;BME280;4710;51.382;7.244;2022-09-09T17:57:21;98765.43;;;29.87;54.45
9343;BME280;4710;51.382;7.244;2022-09-09T18:00:03;98764.11;;;29.94;53.29
9343;BME280;4710;51.382;7.244;2022-09-09T18:02:45;98769.89;;;30.44;51.13
9343;BME280;4710;51.382;7.244;2022-09-09T18:05:28;98769.70;;;30.30;51.50
9343;BME280;4710;51.382;7.244;2022-09-09T18:08:07;98777.07;;;30.27;52.17
9343;BME280;4710;51.382;7.244;2022-09-09T18:10:51;98777.34;;;30.21;52.15
9343;BME280;4710;51.382;7.244;2022-09-09T18:13:26;98779.33;;;30.35;51.37
9343;BME280;4710;51.382;7.244;2022-09-09T18:16:10;98786.89;;;30.13;52.65
9343;BME280;4710;51.382;7.244;2022-09-09T18:18:48;98790.63;;;29.37;55.46
9343;BME280;4710;51.382;7.244;2022-09-09T18:21:31;98793.49;;;29.65;55.05
9343;BME280;4710;51.382;7.244;2022-09-09T18:24:12;98796.63;;;29.48;56.37
9343;BME280;4710;51.382;7.244;2022-09-09T18:26:52;98793.14;;;27.80;60.94
9343;BME280;4710;51.382;7.244;2022-09-09T18:29:32;98798.99;;;28.24;60.95
9343;BME280;4710;51.382;7.244;2022-09-09T18:32:13;98801.19;;;28.78;59.62
9343;BME280;4710;51.382;7.244;2022-09-09T18:34:55;98806.73;;;28.91;57.45
9343;BME280;4710;51.382;7.244;2022-09-09T18:37:38;98812.19;;;28.21;61.58
9343;BME280;4710;51.382;7.244;2022-09-09T18:40:15;98811.92;;;28.39;60.16
9343;BME280;4710;51.382;7.244;2022-09-09T18:42:56;98816.81;;;28.99;57.33
9343;BME280;4710;51.382;7.244;2022-09-09T18:45:38;98818.41;;;28.33;59.50
9343;BME280;4710;51.382;7.244;2022-09-09T18:48:18;98823.09;;;28.29;58.90
9343;BME280;4710;51.382;7.244;2022-09-09T18:51:03;98814.48;;;28.56;58.84
9343;BME280;4710;51.382;7.244;2022-09-09T18:53:52;98822.75;;;27.63;60.42
9343;BME280;4710;51.382;7.244;2022-09-09T18:56:33;98821.73;;;27.83;62.44
9343;BME280;4710;51.382;7.244;2022-09-09T18:59:17;98824.54;;;28.32;60.99
9343;BME280;4710;51.382;7.244;2022-09-09T19:02:02;98831.72;;;27.23;61.09
9343;BME280;4710;51.382;7.244;2022-09-09T19:04:44;98825.38;;;27.89;61.66
9343;BME280;4710;51.382;7.244;2022-09-09T19:07:23;98827.08;;;27.62;63.36
9343;BME280;4710;51.382;7.244;2022-09-09T19:10:00;98831.00;;;28.26;61.34
9343;BME280;4710;51.382;7.244;2022-09-09T19:12:40;98834.31;;;28.11;60.43
9343;BME280;4710;51.382;7.244;2022-09-09T19:15:18;98833.22;;;29.12;58.37
9343;BME280;4710;51.382;7.244;2022-09-09T19:18:01;98827.40;;;28.61;59.13
9343;BME280;4710;51.382;7.244;2022-09-09T19:20:42;98826.45;;;29.20;56.68
9343;BME280;4710;51.382;7.244;2022-09-09T19:23:19;98828.48;;;28.60;57.72
9343;BME280;4710;51.382;7.244;2022-09-09T19:26:00;98834.89;;;28.89;56.51
9343;BME280;4710;51.382;7.244;2022-09-09T19:28:38;98827.14;;;28.24;59.58
9343;BME280;4710;51.382;7.244;2022-09-09T19:31:18;98837.33;;;28.37;60.37